Time;durP1;ratioP1;P1;durP2;ratioP2;P2;SDS_P1;SDS_P2;PMS_P1;PMS_P2;Temp;Humidity;BMP_temperature;BMP_pressure;BME280_temperature;BME280_humidity;BME280_pressure;Samples;Min_cycle;Max_cycle;Signal;HPM_P1;HPM_P2
2021/10/22 00:00:47;;;;;;;;;;;;;;;21.54;56.44;97898.75;2099742;28;763;-62
2021/10/22 00:01:47;;;;;;;;;;;;;;;21.61;55.88;97901.81;2099313;28;973;-62
2021/10/22 00:02:47;;;;;;;;;;;;;;;21.57;55.96;97905.75;2098947;28;1159;-62
2021/10/22 00:03:47;;;;;;;;;;;;;;;21.57;54.75;97903.06;2099624;28;926;-61
2021/10/22 00:04:48;;;;;;;;;;;;;;;21.56;54.47;97901.34;2101184;28;1272;-63
2021/10/22 00:05:49;;;;;;;;;;;;;;;21.57;55.30;97906.59;2101243;28;775;-62
2021/10/22 00:06:49;;;;;;;;;;;;;;;21.64;53.29;97906.09;2101167;28;826;-62
2021/10/22 00:07:49;;;;;;;;;;;;;;;21.64;52.87;97914.19;2101204;28;1024;-62
2021/10/22 00:08:50;;;;;;;;;;;;;;;21.53;54.25;97913.22;2101192;28;965;-62
2021/10/22 00:09:50;;;;;;;;;;;;;;;21.43;53.72;97909.59;2101166;28;830;-62
2021/10/22 00:10:51;;;;;;;;;;;;;;;21.43;52.47;97917.69;2101254;28;833;-63
2021/10/22 00:11:51;;;;;;;;;;;;;;;21.42;54.74;97919.50;2101121;28;988;-61
2021/10/22 00:12:52;;;;;;;;;;;;;;;21.42;54.24;97911.44;2101171;28;908;-62
2021/10/22 00:13:52;;;;;;;;;;;;;;;21.45;54.63;97911.16;2101071;28;791;-62
2021/10/22 00:14:52;;;;;;;;;;;;;;;21.43;54.51;97913.13;2100923;28;965;-62
2021/10/22 00:15:52;;;;;;;;;;;;;;;21.39;54.85;97922.44;2101101;28;984;-63
2021/10/22 00:16:53;;;;;;;;;;;;;;;21.47;53.23;97911.91;2101157;28;844;-63
2021/10/22 00:17:53;;;;;;;;;;;;;;;21.48;52.89;97910.06;2101018;28;901;-62
2021/10/22 00:18:53;;;;;;;;;;;;;;;21.40;55.74;97909.84;2101030;28;1898;-62
2021/10/22 00:19:53;;;;;;;;;;;;;;;21.38;54.45;97923.44;2101056;28;850;-62
2021/10/22 00:20:53;;;;;;;;;;;;;;;21.37;55.05;97924.41;2100949;28;1013;-62
2021/10/22 00:21:53;;;;;;;;;;;;;;;21.39;55.48;97925.13;2101033;28;826;-63
2021/10/22 00:22:54;;;;;;;;;;;;;;;21.37;55.54;97923.56;2101002;28;900;-61
2021/10/22 00:23:54;;;;;;;;;;;;;;;21.46;54.77;97914.72;2101038;28;1027;-63
2021/10/22 00:24:54;;;;;;;;;;;;;;;21.47;54.38;97914.59;2100822;28;786;-62
2021/10/22 00:25:54;;;;;;;;;;;;;;;21.39;55.55;97929.69;2100961;28;1015;-62
2021/10/22 00:26:54;;;;;;;;;;;;;;;21.36;55.52;97933.47;2101049;28;988;-61
2021/10/22 00:27:55;;;;;;;;;;;;;;;21.33;55.30;97931.03;2101098;28;771;-62
2021/10/22 00:28:55;;;;;;;;;;;;;;;21.40;54.91;97929.53;2101092;28;818;-62
2021/10/22 00:29:55;;;;;;;;;;;;;;;21.37;54.56;97932.50;2101086;28;854;-63
2021/10/22 00:30:56;;;;;;;;;;;;;;;21.43;53.89;97931.97;2101040;28;845;-62
2021/10/22 00:31:56;;;;;;;;;;;;;;;21.47;53.03;97941.53;2101054;28;826;-62
2021/10/22 00:32:56;;;;;;;;;;;;;;;21.42;54.23;97935.66;2100975;28;755;-62
2021/10/22 00:33:57;;;;;;;;;;;;;;;21.47;54.11;97933.44;2101037;28;795;-61
2021/10/22 00:34:57;;;;;;;;;;;;;;;21.43;55.31;97941.91;2100871;28;1105;-61
2021/10/22 00:35:57;;;;;;;;;;;;;;;21.46;54.94;97939.81;2100638;28;879;-62
2021/10/22 00:36:58;;;;;;;;;;;;;;;21.45;53.83;97942.66;2100917;28;1466;-63
2021/10/22 00:37:58;;;;;;;;;;;;;;;21.39;54.55;97941.28;2100960;28;829;-62
2021/10/22 00:38:58;;;;;;;;;;;;;;;21.53;52.96;97940.16;2100922;28;1890;-62
2021/10/22 00:39:58;;;;;;;;;;;;;;;21.44;54.45;97949.00;2101014;28;838;-63
2021/10/22 00:40:59;;;;;;;;;;;;;;;21.47;52.80;97946.06;2100866;28;878;-62
2021/10/22 00:41:59;;;;;;;;;;;;;;;21.56;51.93;97950.66;2100817;28;799;-61
2021/10/22 00:43:00;;;;;;;;;;;;;;;21.48;53.21;97948.63;2100878;28;957;-62
2021/10/22 00:44:01;;;;;;;;;;;;;;;21.49;52.98;97960.22;2100929;28;1532;-62
2021/10/22 00:45:02;;;;;;;;;;;;;;;21.52;52.88;97956.44;2100929;28;782;-62
2021/10/22 00:46:02;;;;;;;;;;;;;;;21.45;54.41;97956.94;2100660;28;791;-63
2021/10/22 00:47:04;;;;;;;;;;;;;;;21.38;55.57;97962.97;2100689;28;1115;-62
2021/10/22 00:48:04;;;;;;;;;;;;;;;21.38;54.22;97957.59;2100907;28;747;-63
2021/10/22 00:49:12;;;;;;;;;;;;;;;21.35;53.86;97964.06;2100935;28;980;-63
2021/10/22 00:50:12;;;;;;;;;;;;;;;21.35;53.75;97964.06;2100850;28;1054;-62
2021/10/22 00:51:13;;;;;;;;;;;;;;;21.52;53.63;97968.06;2100840;28;953;-62
2021/10/22 00:52:15;;;;;;;;;;;;;;;21.48;54.25;97969.31;2100783;28;980;-63
2021/10/22 00:53:16;;;;;;;;;;;;;;;21.36;55.61;97971.16;2100884;28;1398;-63
2021/10/22 00:54:16;;;;;;;;;;;;;;;21.39;55.08;97970.06;2100726;28;921;-63
2021/10/22 00:55:17;;;;;;;;;;;;;;;21.44;54.97;97974.09;2100823;28;1023;-62
2021/10/22 00:56:17;;;;;;;;;;;;;;;21.46;55.31;97971.28;2100667;28;1079;-62
2021/10/22 00:57:17;;;;;;;;;;;;;;;21.38;54.89;97979.13;2100830;28;1008;-63
2021/10/22 00:58:18;;;;;;;;;;;;;;;21.35;56.05;97974.84;2100814;28;846;-62
2021/10/22 00:59:18;;;;;;;;;;;;;;;21.38;54.48;97982.66;2100678;28;1973;-63
2021/10/22 01:00:18;;;;;;;;;;;;;;;21.33;55.28;97976.81;2100859;28;790;-62
2021/10/22 01:01:18;;;;;;;;;;;;;;;21.35;54.52;97980.22;2100808;28;790;-62
2021/10/22 01:02:19;;;;;;;;;;;;;;;21.36;55.52;97976.56;2100665;28;1027;-63
2021/10/22 01:03:19;;;;;;;;;;;;;;;21.35;54.88;97982.91;2100760;28;792;-63
2021/10/22 01:04:19;;;;;;;;;;;;;;;21.44;54.09;97979.47;2100732;28;878;-62
2021/10/22 01:05:20;;;;;;;;;;;;;;;21.46;54.52;97982.06;2100736;28;1124;-63
2021/10/22 01:06:20;;;;;;;;;;;;;;;21.42;54.38;97978.75;2100681;28;826;-62
2021/10/22 01:07:20;;;;;;;;;;;;;;;21.38;55.50;97985.38;2100420;28;1375;-63
2021/10/22 01:08:21;;;;;;;;;;;;;;;21.46;55.09;97990.97;2100794;28;817;-62
2021/10/22 01:09:21;;;;;;;;;;;;;;;21.35;56.41;97988.31;2100824;28;767;-62
2021/10/22 01:10:21;;;;;;;;;;;;;;;21.38;54.22;97996.13;2100726;28;968;-62
2021/10/22 01:11:22;;;;;;;;;;;;;;;21.50;54.88;97994.25;2100617;28;1270;-63
2021/10/22 01:12:22;;;;;;;;;;;;;;;21.46;55.57;98001.75;2100721;28;1349;-62
2021/10/22 01:13:23;;;;;;;;;;;;;;;21.42;54.57;97991.38;2100772;28;1012;-62
2021/10/22 01:14:23;;;;;;;;;;;;;;;21.39;54.08;97997.84;2100629;28;877;-63
2021/10/22 01:15:24;;;;;;;;;;;;;;;21.40;56.26;97996.88;2099749;28;753;-62
2021/10/22 01:16:24;;;;;;;;;;;;;;;21.35;56.20;98003.63;2100688;28;811;-62
2021/10/22 01:17:34;;;;;;;;;;;;;;;21.32;56.32;97996.63;2100494;28;909;-62
2021/10/22 01:18:34;;;;;;;;;;;;;;;21.29;55.25;97995.06;2100621;28;842;-63
2021/10/22 01:19:34;;;;;;;;;;;;;;;21.29;55.45;97991.50;2100525;28;1953;-63
2021/10/22 01:20:38;;;;;;;;;;;;;;;21.37;55.63;98002.50;2100557;28;851;-62
2021/10/22 01:21:39;;;;;;;;;;;;;;;21.28;55.84;97992.47;2100652;28;961;-62
2021/10/22 01:22:40;;;;;;;;;;;;;;;21.29;54.40;97994.19;2100345;28;779;-63
2021/10/22 01:23:40;;;;;;;;;;;;;;;21.32;55.66;97997.50;2100367;28;893;-62
2021/10/22 01:24:40;;;;;;;;;;;;;;;21.33;55.47;97998.34;2100566;28;845;-63
2021/10/22 01:25:41;;;;;;;;;;;;;;;21.25;56.62;98003.50;2100623;28;949;-62
2021/10/22 01:26:41;;;;;;;;;;;;;;;21.39;54.22;97999.69;2100617;28;783;-63
2021/10/22 01:27:42;;;;;;;;;;;;;;;21.37;56.24;98001.66;2100628;28;869;-63
2021/10/22 01:28:42;;;;;;;;;;;;;;;21.34;54.39;97994.66;2100651;28;1047;-62
2021/10/22 01:29:42;;;;;;;;;;;;;;;21.31;54.87;97997.59;2100587;28;791;-63
2021/10/22 01:30:42;;;;;;;;;;;;;;;21.26;55.92;97991.75;2100518;28;857;-63
2021/10/22 01:31:44;;;;;;;;;;;;;;;21.32;56.00;97994.81;2100590;28;926;-62
2021/10/22 01:32:44;;;;;;;;;;;;;;;21.41;55.46;97998.56;2100528;28;865;-63
2021/10/22 01:33:48;;;;;;;;;;;;;;;21.39;54.35;97989.75;2100567;28;766;-63
2021/10/22 01:34:49;;;;;;;;;;;;;;;21.37;55.36;98004.34;2100536;28;849;-62
2021/10/22 01:35:50;;;;;;;;;;;;;;;21.33;55.44;98003.72;2100425;28;988;-62
2021/10/22 01:36:50;;;;;;;;;;;;;;;21.30;55.62;98009.34;2100509;28;1079;-62
2021/10/22 01:37:50;;;;;;;;;;;;;;;21.31;56.11;97995.78;2100495;28;1340;-62
2021/10/22 01:38:50;;;;;;;;;;;;;;;21.29;55.42;98011.22;2100378;28;1949;-63
2021/10/22 01:39:50;;;;;;;;;;;;;;;21.34;54.98;98008.13;2100533;28;771;-63
2021/10/22 01:40:55;;;;;;;;;;;;;;;21.27;56.68;98010.47;2100548;28;1090;-63
2021/10/22 01:41:56;;;;;;;;;;;;;;;21.27;55.57;98002.41;2100540;28;790;-63
2021/10/22 01:42:57;;;;;;;;;;;;;;;21.27;56.16;98005.09;2100362;28;826;-62
2021/10/22 01:44:01;;;;;;;;;;;;;;;21.33;53.77;98001.91;2100114;28;841;-63
2021/10/22 01:45:03;;;;;;;;;;;;;;;21.37;54.28;98005.19;2100463;28;743;-62
2021/10/22 01:46:03;;;;;;;;;;;;;;;21.34;55.26;98005.44;2100353;28;890;-63
2021/10/22 01:47:03;;;;;;;;;;;;;;;21.35;55.21;98000.94;2100462;28;842;-62
2021/10/22 01:48:03;;;;;;;;;;;;;;;21.29;55.92;98005.81;2100362;28;956;-63
2021/10/22 01:49:04;;;;;;;;;;;;;;;21.33;55.58;98006.41;2100423;28;882;-62
2021/10/22 01:50:04;;;;;;;;;;;;;;;21.25;55.34;98017.81;2100366;28;775;-63
2021/10/22 01:51:04;;;;;;;;;;;;;;;21.29;55.24;98007.66;2099858;28;767;-62
2021/10/22 01:52:05;;;;;;;;;;;;;;;21.34;55.94;98008.13;2099650;28;973;-63
2021/10/22 01:53:05;;;;;;;;;;;;;;;21.29;55.23;98013.03;2100385;28;965;-64
2021/10/22 01:54:05;;;;;;;;;;;;;;;21.28;55.70;98017.56;2100134;28;968;-62
2021/10/22 01:55:06;;;;;;;;;;;;;;;21.34;54.89;98013.50;2100266;28;1013;-62
2021/10/22 01:56:06;;;;;;;;;;;;;;;21.34;55.04;98016.22;2100231;28;1089;-62
2021/10/22 01:57:07;;;;;;;;;;;;;;;21.29;56.37;98021.09;2100410;28;731;-62
2021/10/22 01:58:08;;;;;;;;;;;;;;;21.21;55.31;98026.25;2100246;28;779;-63
2021/10/22 01:59:08;;;;;;;;;;;;;;;21.23;56.48;98025.16;2100314;28;1910;-63
2021/10/22 02:00:09;;;;;;;;;;;;;;;21.31;55.83;98022.72;2100229;28;957;-63
2021/10/22 02:01:09;;;;;;;;;;;;;;;21.26;55.21;98034.81;2100336;28;1028;-63
2021/10/22 02:02:10;;;;;;;;;;;;;;;21.20;54.66;98029.94;2100324;28;891;-62
2021/10/22 02:03:11;;;;;;;;;;;;;;;21.25;55.17;98030.41;2100219;28;799;-63
2021/10/22 02:04:11;;;;;;;;;;;;;;;21.24;55.78;98029.56;2100289;28;791;-62
2021/10/22 02:05:12;;;;;;;;;;;;;;;21.16;55.50;98032.00;2100292;28;881;-62
2021/10/22 02:06:12;;;;;;;;;;;;;;;21.25;54.03;98031.28;2100216;28;1239;-63
2021/10/22 02:07:12;;;;;;;;;;;;;;;21.22;55.82;98036.91;2100291;28;1293;-63
2021/10/22 02:08:12;;;;;;;;;;;;;;;21.18;56.06;98036.31;2100087;28;751;-62
2021/10/22 02:09:12;;;;;;;;;;;;;;;21.27;54.08;98040.09;2100292;28;767;-62
2021/10/22 02:10:13;;;;;;;;;;;;;;;21.26;55.82;98035.69;2100412;28;831;-62
2021/10/22 02:11:13;;;;;;;;;;;;;;;21.27;54.43;98041.91;2100036;28;771;-62
2021/10/22 02:12:13;;;;;;;;;;;;;;;21.28;53.93;98040.94;2100194;28;795;-64
2021/10/22 02:13:13;;;;;;;;;;;;;;;21.24;55.38;98034.09;2100310;28;882;-62
2021/10/22 02:14:16;;;;;;;;;;;;;;;21.23;54.75;98035.94;2100089;28;1007;-63
2021/10/22 02:15:17;;;;;;;;;;;;;;;21.20;55.99;98035.34;2100189;28;1209;-63
2021/10/22 02:16:18;;;;;;;;;;;;;;;21.23;54.30;98035.06;2100135;28;1234;-63
2021/10/22 02:17:18;;;;;;;;;;;;;;;21.15;55.44;98039.25;2100142;28;809;-63
2021/10/22 02:18:18;;;;;;;;;;;;;;;21.12;56.20;98036.81;2100231;28;842;-63
2021/10/22 02:19:18;;;;;;;;;;;;;;;21.09;56.18;98033.47;2099903;28;1905;-63
2021/10/22 02:20:19;;;;;;;;;;;;;;;21.12;55.81;98033.25;2100135;28;1468;-61
2021/10/22 02:21:19;;;;;;;;;;;;;;;21.16;56.40;98035.59;2100132;28;781;-62
2021/10/22 02:22:19;;;;;;;;;;;;;;;;;;2100273;28;692;-62
2021/10/22 02:23:19;;;;;;;;;;;;;;;21.24;54.91;98045.72;2099991;28;992;-63
2021/10/22 02:24:20;;;;;;;;;;;;;;;21.22;55.42;98038.72;2100091;28;1187;-61
2021/10/22 02:25:22;;;;;;;;;;;;;;;21.19;56.05;98047.91;2099851;28;925;-64
2021/10/22 02:26:22;;;;;;;;;;;;;;;21.22;54.56;98044.13;2099962;28;798;-62
2021/10/22 02:27:22;;;;;;;;;;;;;;;21.18;55.77;98047.09;2100085;28;912;-62
2021/10/22 02:28:22;;;;;;;;;;;;;;;21.17;56.72;98045.38;2100083;28;1028;-63
2021/10/22 02:29:22;;;;;;;;;;;;;;;21.16;56.15;98045.47;2100110;28;814;-63
2021/10/22 02:30:22;;;;;;;;;;;;;;;21.20;55.60;98048.78;2100044;28;842;-62
2021/10/22 02:31:23;;;;;;;;;;;;;;;21.26;55.02;98051.84;2100125;28;792;-63
2021/10/22 02:32:23;;;;;;;;;;;;;;;21.23;55.84;98051.22;2099991;28;798;-62
2021/10/22 02:33:23;;;;;;;;;;;;;;;21.23;55.14;98056.59;2100084;28;900;-62
2021/10/22 02:34:23;;;;;;;;;;;;;;;21.20;55.14;98055.03;2100039;28;810;-63
2021/10/22 02:35:23;;;;;;;;;;;;;;;21.22;57.17;98055.75;2099918;28;984;-62
2021/10/22 02:36:23;;;;;;;;;;;;;;;21.18;54.29;98060.53;2100019;28;977;-62
2021/10/22 02:37:23;;;;;;;;;;;;;;;21.28;55.43;98062.47;2099997;28;1220;-63
2021/10/22 02:38:24;;;;;;;;;;;;;;;21.17;55.63;98057.97;2100020;28;973;-62
2021/10/22 02:39:24;;;;;;;;;;;;;;;21.08;55.36;98062.25;2099889;28;1890;-62
2021/10/22 02:40:24;;;;;;;;;;;;;;;21.09;55.96;98063.09;2099933;28;985;-63
2021/10/22 02:41:24;;;;;;;;;;;;;;;21.13;55.70;98057.34;2099965;28;743;-62
2021/10/22 02:42:24;;;;;;;;;;;;;;;21.19;55.80;98061.38;2100053;28;1195;-62
2021/10/22 02:43:25;;;;;;;;;;;;;;;;;;2099807;28;949;-63
2021/10/22 02:44:25;;;;;;;;;;;;;;;21.19;56.02;98053.31;2099966;28;859;-63
2021/10/22 02:45:25;;;;;;;;;;;;;;;21.17;56.15;98066.91;2100019;28;827;-62
2021/10/22 02:46:25;;;;;;;;;;;;;;;21.14;55.20;98055.50;2099540;28;1337;-63
2021/10/22 02:47:25;;;;;;;;;;;;;;;21.17;55.80;98058.81;2100020;28;838;-62
2021/10/22 02:48:25;;;;;;;;;;;;;;;21.12;55.94;98057.47;2099951;28;964;-62
2021/10/22 02:49:26;;;;;;;;;;;;;;;21.20;54.74;98062.25;2099738;28;1087;-63
2021/10/22 02:50:26;;;;;;;;;;;;;;;21.25;55.74;98062.72;2099957;28;772;-63
2021/10/22 02:51:26;;;;;;;;;;;;;;;21.17;55.34;98021.16;2099900;28;762;-62
2021/10/22 02:52:27;;;;;;;;;;;;;;;21.19;56.23;98018.31;2099871;28;831;-62
2021/10/22 02:53:27;;;;;;;;;;;;;;;21.20;55.08;98022.72;2099972;28;799;-62
2021/10/22 02:54:27;;;;;;;;;;;;;;;21.30;54.71;98025.50;2099877;28;862;-62
2021/10/22 02:55:28;;;;;;;;;;;;;;;21.20;55.00;98021.88;2099926;28;973;-63
2021/10/22 02:56:28;;;;;;;;;;;;;;;21.20;55.26;98016.50;2099742;28;1175;-62
2021/10/22 02:57:28;;;;;;;;;;;;;;;21.20;55.75;98008.41;2099865;28;776;-62
2021/10/22 02:58:29;;;;;;;;;;;;;;;21.17;55.11;98050.75;2099944;28;810;-62
2021/10/22 02:59:29;;;;;;;;;;;;;;;21.10;55.84;98106.06;2099795;28;1906;-62
2021/10/22 03:00:29;;;;;;;;;;;;;;;21.07;56.56;98081.19;2099869;28;988;-63
2021/10/22 03:01:29;;;;;;;;;;;;;;;21.19;54.53;98082.91;2099956;28;819;-62
2021/10/22 03:02:29;;;;;;;;;;;;;;;21.15;55.20;98092.22;2099794;28;1028;-62
2021/10/22 03:03:30;;;;;;;;;;;;;;;21.13;55.38;98084.28;2099784;28;969;-63
2021/10/22 03:04:30;;;;;;;;;;;;;;;21.11;55.27;98088.91;2099778;28;1035;-64
2021/10/22 03:05:31;;;;;;;;;;;;;;;21.22;54.87;98085.38;2099841;28;838;-62
2021/10/22 03:06:31;;;;;;;;;;;;;;;21.14;55.09;98085.13;2099883;28;1330;-63
2021/10/22 03:07:31;;;;;;;;;;;;;;;21.20;54.71;98084.63;2099669;28;921;-63
2021/10/22 03:08:31;;;;;;;;;;;;;;;21.17;55.72;98091.13;2099836;28;929;-62
2021/10/22 03:09:31;;;;;;;;;;;;;;;21.22;54.24;98087.19;2099840;28;976;-63
2021/10/22 03:10:31;;;;;;;;;;;;;;;21.26;55.70;98084.16;2099887;28;1212;-64
2021/10/22 03:11:32;;;;;;;;;;;;;;;21.31;54.77;98083.78;2099837;28;985;-62
2021/10/22 03:12:32;;;;;;;;;;;;;;;21.20;56.19;98063.09;2099738;28;1013;-64
2021/10/22 03:13:32;;;;;;;;;;;;;;;21.17;54.81;98060.66;2099815;28;972;-63
2021/10/22 03:14:32;;;;;;;;;;;;;;;21.16;55.30;98062.50;2099901;28;793;-62
2021/10/22 03:15:33;;;;;;;;;;;;;;;21.17;55.26;98066.03;2099783;28;990;-63
2021/10/22 03:16:33;;;;;;;;;;;;;;;21.10;57.21;98070.19;2099786;28;861;-63
2021/10/22 03:17:33;;;;;;;;;;;;;;;21.23;55.08;98068.25;2099707;28;1012;-63
2021/10/22 03:18:33;;;;;;;;;;;;;;;21.18;55.03;98065.94;2099743;28;973;-62
2021/10/22 03:19:33;;;;;;;;;;;;;;;21.08;56.36;98070.31;2099812;28;1890;-63
2021/10/22 03:20:35;;;;;;;;;;;;;;;21.19;55.79;98066.75;2099675;28;972;-62
2021/10/22 03:21:35;;;;;;;;;;;;;;;21.09;55.79;98074.72;2099715;28;786;-63
2021/10/22 03:22:35;;;;;;;;;;;;;;;21.22;55.53;98060.25;2099772;28;762;-62
2021/10/22 03:23:35;;;;;;;;;;;;;;;21.12;55.83;98069.09;2099465;28;822;-63
2021/10/22 03:24:36;;;;;;;;;;;;;;;21.11;56.02;98064.69;2099750;28;980;-63
2021/10/22 03:25:36;;;;;;;;;;;;;;;21.11;55.61;98070.09;2099598;28;874;-63
2021/10/22 03:26:36;;;;;;;;;;;;;;;21.12;55.91;98071.78;2099668;28;799;-63
2021/10/22 03:27:36;;;;;;;;;;;;;;;21.10;55.98;98067.50;2099151;28;1012;-63
2021/10/22 03:28:37;;;;;;;;;;;;;;;21.18;55.74;98075.81;2099236;28;842;-62
2021/10/22 03:29:37;;;;;;;;;;;;;;;21.14;55.67;98075.22;2099753;28;981;-63
2021/10/22 03:30:37;;;;;;;;;;;;;;;21.14;55.14;98075.22;2099766;28;775;-62
2021/10/22 03:31:38;;;;;;;;;;;;;;;21.23;55.02;98078.13;2099456;28;1230;-62
2021/10/22 03:32:38;;;;;;;;;;;;;;;21.23;54.95;98072.75;2099742;28;854;-62
2021/10/22 03:33:38;;;;;;;;;;;;;;;21.18;56.25;98076.69;2099735;28;1020;-62
2021/10/22 03:34:39;;;;;;;;;;;;;;;21.12;55.97;98079.88;2099711;28;767;-62
2021/10/22 03:35:40;;;;;;;;;;;;;;;21.23;53.85;98073.63;2099758;28;827;-63
2021/10/22 03:36:41;;;;;;;;;;;;;;;21.15;55.81;98082.31;2099609;28;842;-63
2021/10/22 03:37:41;;;;;;;;;;;;;;;21.13;55.66;98083.41;2099643;28;1470;-63
2021/10/22 03:38:41;;;;;;;;;;;;;;;21.16;55.04;98080.47;2100264;28;949;-63
2021/10/22 03:39:41;;;;;;;;;;;;;;;21.16;55.64;98083.16;2101238;28;1955;-62
2021/10/22 03:40:42;;;;;;;;;;;;;;;21.16;54.51;98080.47;2101466;28;822;-63
2021/10/22 03:41:42;;;;;;;;;;;;;;;21.20;54.59;98079.25;2101390;28;1055;-62
2021/10/22 03:42:42;;;;;;;;;;;;;;;21.18;55.80;98090.16;2101306;28;1083;-62
2021/10/22 03:43:42;;;;;;;;;;;;;;;21.18;54.87;98084.78;2101324;28;775;-62
2021/10/22 03:44:42;;;;;;;;;;;;;;;21.10;56.69;98078.25;2101357;28;882;-63
2021/10/22 03:45:43;;;;;;;;;;;;;;;21.09;56.29;98077.41;2101342;28;897;-63
2021/10/22 03:46:43;;;;;;;;;;;;;;;21.15;55.46;98078.75;2101355;28;1012;-64
2021/10/22 03:47:43;;;;;;;;;;;;;;;21.17;54.89;98083.06;2101178;28;833;-63
2021/10/22 03:48:44;;;;;;;;;;;;;;;21.19;55.62;98091.00;2101397;28;772;-62
2021/10/22 03:49:44;;;;;;;;;;;;;;;;;;2101379;28;794;-63
2021/10/22 03:50:44;;;;;;;;;;;;;;;21.16;55.58;98089.41;2101430;28;826;-62
2021/10/22 03:51:44;;;;;;;;;;;;;;;21.18;55.61;98095.53;2101310;28;906;-65
2021/10/22 03:52:44;;;;;;;;;;;;;;;21.18;55.27;98098.22;2101123;28;985;-62
2021/10/22 03:53:45;;;;;;;;;;;;;;;21.16;55.05;98100.19;2101312;28;1000;-62
2021/10/22 03:54:45;;;;;;;;;;;;;;;21.23;54.34;98100.53;2101341;28;846;-62
2021/10/22 03:55:45;;;;;;;;;;;;;;;21.20;54.63;98110.72;2101214;28;1035;-63
2021/10/22 03:56:45;;;;;;;;;;;;;;;21.12;55.09;98097.84;2101168;28;1206;-62
2021/10/22 03:57:45;;;;;;;;;;;;;;;21.11;55.15;98110.47;2101265;28;897;-63
2021/10/22 03:58:45;;;;;;;;;;;;;;;21.13;56.08;98105.81;2101064;28;1985;-62
2021/10/22 03:59:46;;;;;;;;;;;;;;;21.15;55.35;98108.38;2101332;28;822;-62
2021/10/22 04:00:46;;;;;;;;;;;;;;;21.16;55.62;98116.34;2101284;28;1310;-62
2021/10/22 04:01:47;;;;;;;;;;;;;;;21.17;54.89;98112.66;2101225;28;837;-62
2021/10/22 04:02:47;;;;;;;;;;;;;;;21.16;55.60;98113.66;2101299;28;836;-63
2021/10/22 04:03:47;;;;;;;;;;;;;;;21.33;55.32;98114.13;2101105;28;973;-62
2021/10/22 04:04:47;;;;;;;;;;;;;;;21.99;53.22;98113.34;2101217;28;779;-63
2021/10/22 04:05:48;;;;;;;;;;;;;;;22.32;51.85;98116.06;2101226;28;889;-62
2021/10/22 04:06:48;;;;;;;;;;;;;;;22.38;52.62;98107.47;2101175;28;972;-63
2021/10/22 04:07:48;;;;;;;;;;;;;;;22.54;51.05;98101.66;2101214;28;778;-63
2021/10/22 04:08:48;;;;;;;;;;;;;;;22.65;50.97;98109.72;2101053;28;842;-64
2021/10/22 04:09:48;;;;;;;;;;;;;;;22.73;52.26;98109.03;2101075;28;858;-63
2021/10/22 04:10:49;;;;;;;;;;;;;;;22.80;51.79;98110.22;2101200;28;976;-64
2021/10/22 04:11:49;;;;;;;;;;;;;;;22.98;50.80;98111.47;2101161;28;828;-63
2021/10/22 04:12:49;;;;;;;;;;;;;;;23.05;49.28;98109.97;2101229;28;928;-63
2021/10/22 04:13:49;;;;;;;;;;;;;;;23.03;50.38;98118.19;2101155;28;932;-65
2021/10/22 04:14:49;;;;;;;;;;;;;;;23.09;50.80;98119.50;2101000;28;929;-63
2021/10/22 04:15:50;;;;;;;;;;;;;;;23.10;51.28;98115.81;2101228;28;838;-63
2021/10/22 04:16:50;;;;;;;;;;;;;;;23.15;51.41;98115.44;2101098;28;863;-63
2021/10/22 04:17:50;;;;;;;;;;;;;;;23.26;49.62;98117.22;2101007;28;940;-62
2021/10/22 04:18:50;;;;;;;;;;;;;;;23.28;50.92;98120.63;2101129;28;1890;-61
2021/10/22 04:19:50;;;;;;;;;;;;;;;23.28;52.28;98126.03;2100977;28;893;-62
2021/10/22 04:20:51;;;;;;;;;;;;;;;23.34;51.34;98126.34;2101108;28;1012;-62
2021/10/22 04:21:51;;;;;;;;;;;;;;;23.36;51.42;98131.63;2101101;28;842;-63
2021/10/22 04:22:52;;;;;;;;;;;;;;;23.41;49.64;98129.38;2101008;28;778;-63
2021/10/22 04:23:52;;;;;;;;;;;;;;;23.46;51.25;98134.38;2101187;28;778;-62
2021/10/22 04:24:52;;;;;;;;;;;;;;;23.49;51.13;98131.41;2100965;28;980;-61
2021/10/22 04:25:53;;;;;;;;;;;;;;;23.60;50.96;98130.44;2101071;28;780;-61
2021/10/22 04:26:53;;;;;;;;;;;;;;;23.59;51.54;98124.19;2101067;28;792;-60
2021/10/22 04:27:54;;;;;;;;;;;;;;;23.58;51.54;98133.28;2101013;28;858;-60
2021/10/22 04:28:54;;;;;;;;;;;;;;;23.66;51.32;98138.00;2101043;28;807;-61
2021/10/22 04:29:54;;;;;;;;;;;;;;;23.71;50.59;98133.03;2101027;28;850;-62
2021/10/22 04:30:55;;;;;;;;;;;;;;;23.73;50.52;98136.47;2100982;28;1023;-63
2021/10/22 04:31:55;;;;;;;;;;;;;;;23.71;52.26;98138.44;2100982;28;933;-62
2021/10/22 04:32:55;;;;;;;;;;;;;;;23.76;51.74;98130.78;2100857;28;968;-61
2021/10/22 04:33:55;;;;;;;;;;;;;;;23.83;51.09;98131.09;2100999;28;851;-62
2021/10/22 04:34:55;;;;;;;;;;;;;;;23.90;50.67;98137.66;2101015;28;1039;-61
2021/10/22 04:35:56;;;;;;;;;;;;;;;23.84;51.22;98133.66;2100869;28;1024;-60
2021/10/22 04:37:02;;;;;;;;;;;;;;;23.75;50.00;98137.19;2100915;28;1243;-61
2021/10/22 04:40:41;;;;;;;;;;;;;;;23.98;51.51;98142.38;2100998;28;663;-61
2021/10/22 04:41:41;;;;;;;;;;;;;;;24.03;50.88;98137.44;2100982;28;873;-61
2021/10/22 04:42:43;;;;;;;;;;;;;;;23.91;51.40;98141.22;2100955;28;1023;-61
2021/10/22 04:43:43;;;;;;;;;;;;;;;23.93;51.03;98144.66;2100693;28;787;-62
2021/10/22 04:44:44;;;;;;;;;;;;;;;23.99;49.19;98144.13;2100877;28;830;-62
2021/10/22 04:45:47;;;;;;;;;;;;;;;23.98;51.60;98145.09;2100860;28;805;-63
2021/10/22 04:46:47;;;;;;;;;;;;;;;24.03;51.75;98150.97;2100725;28;832;-61
2021/10/22 04:47:47;;;;;;;;;;;;;;;24.06;50.27;98147.13;2100813;28;993;-61
2021/10/22 04:48:48;;;;;;;;;;;;;;;23.95;52.23;98151.63;2100815;28;794;-61
2021/10/22 04:49:48;;;;;;;;;;;;;;;23.95;51.20;98156.19;2100826;28;885;-62
2021/10/22 04:50:51;;;;;;;;;;;;;;;23.96;49.64;98158.72;2100877;28;941;-62
2021/10/22 04:51:51;;;;;;;;;;;;;;;23.98;51.36;98158.59;2100812;28;827;-61
2021/10/22 04:52:54;;;;;;;;;;;;;;;23.93;53.87;98156.31;2100890;28;861;-63
2021/10/22 04:53:54;;;;;;;;;;;;;;;23.91;53.36;98161.00;2100804;28;1049;-62
2021/10/22 04:54:54;;;;;;;;;;;;;;;24.02;50.58;98160.06;2100824;28;849;-61
2021/10/22 04:55:55;;;;;;;;;;;;;;;24.10;49.54;98149.44;2100693;28;1107;-61
2021/10/22 04:56:55;;;;;;;;;;;;;;;24.12;51.35;98155.56;2100595;28;825;-62
2021/10/22 04:57:55;;;;;;;;;;;;;;;24.10;51.59;98151.25;2100875;28;834;-61
2021/10/22 04:58:55;;;;;;;;;;;;;;;24.07;51.48;98152.41;2100745;28;1973;-61
2021/10/22 04:59:55;;;;;;;;;;;;;;;24.12;51.22;98154.69;2100760;28;842;-61
2021/10/22 05:00:56;;;;;;;;;;;;;;;24.13;50.60;98157.25;2100750;28;1008;-62
2021/10/22 05:01:56;;;;;;;;;;;;;;;24.10;48.89;98145.84;2100740;28;923;-62
2021/10/22 05:02:56;;;;;;;;;;;;;;;24.17;51.22;98152.41;2100822;28;1012;-61
2021/10/22 05:03:56;;;;;;;;;;;;;;;24.12;51.66;98151.97;2100675;28;1059;-62
2021/10/22 05:04:57;;;;;;;;;;;;;;;24.07;51.34;98144.28;2100653;28;1380;-63
2021/10/22 05:05:57;;;;;;;;;;;;;;;24.11;52.37;98144.84;2100754;28;976;-62
2021/10/22 05:06:57;;;;;;;;;;;;;;;24.10;51.59;98143.16;2100529;28;1340;-62
2021/10/22 05:07:58;;;;;;;;;;;;;;;24.04;51.99;98147.28;2100738;28;862;-62
2021/10/22 05:08:58;;;;;;;;;;;;;;;24.06;50.91;98153.41;2100786;28;794;-61
2021/10/22 05:09:58;;;;;;;;;;;;;;;24.11;49.74;98145.72;2099937;28;2357;-62
2021/10/22 05:11:00;;;;;;;;;;;;;;;24.13;51.79;98145.56;2100165;28;1203;-62
2021/10/22 05:12:05;;;;;;;;;;;;;;;24.19;50.14;98153.13;2100656;28;822;-62
2021/10/22 05:13:05;;;;;;;;;;;;;;;24.20;51.70;98153.97;2100744;28;830;-61
2021/10/22 05:14:06;;;;;;;;;;;;;;;24.20;51.39;98156.69;2100581;28;1039;-62
2021/10/22 05:15:07;;;;;;;;;;;;;;;24.13;51.64;98157.25;2100421;28;770;-61
2021/10/22 05:16:07;;;;;;;;;;;;;;;24.16;52.35;98160.66;2100584;28;1059;-62
2021/10/22 05:17:07;;;;;;;;;;;;;;;24.21;51.46;98156.56;2100741;28;1068;-61
2021/10/22 05:18:08;;;;;;;;;;;;;;;24.28;50.50;98155.00;2100634;28;964;-62
2021/10/22 05:19:08;;;;;;;;;;;;;;;24.17;51.27;98157.81;2100603;28;1897;-62
2021/10/22 05:20:09;;;;;;;;;;;;;;;24.15;54.65;98164.34;2100691;28;972;-61
2021/10/22 05:21:10;;;;;;;;;;;;;;;24.20;52.18;98172.91;2099994;28;1454;-62
2021/10/22 05:22:10;;;;;;;;;;;;;;;24.23;51.65;98162.69;2100124;28;846;-62
2021/10/22 05:23:10;;;;;;;;;;;;;;;24.32;53.52;98162.84;2100359;28;849;-61
2021/10/22 05:24:10;;;;;;;;;;;;;;;24.44;51.87;98161.69;2100600;28;853;-60
2021/10/22 05:25:14;;;;;;;;;;;;;;;24.35;51.30;98163.41;2100596;28;1012;-60